METAR Data
IDs: Format: Raw Decoded Include TAF

Data at: 2122 UTC 08 Aug 2020

KJTC 082115Z AUTO 25017KT 10SM FEW036 SCT075 BKN110 22/07 A3040 RMK AO2
KJTC 082055Z AUTO 29008KT 10SM -DZ FEW017 SCT034 BKN055 21/07 A3039 RMK AO2
KJTC 082035Z AUTO 12009G14KT 10SM FEW015 SCT031 BKN100 19/09 A3041 RMK AO2
KJTC 082015Z AUTO 16014G23KT 6SM HZ FEW013 SCT031 BKN047 19/11 A3041 RMK AO2 LTG DSNT SE AND SW
KJTC 081955Z AUTO 22010G24KT 8SM -RA FEW001 FEW024 BKN085 21/09 A3040 RMK AO2
KJTC 081935Z AUTO 13005G12KT 10SM FEW055 BKN095 BKN110 24/05 A3039 RMK AO2
KJTC 081915Z AUTO 07008G18KT 10SM FEW015 SCT035 BKN090 24/08 A3039 RMK AO2
KJTC 081855Z AUTO VRB09G29KT 3SM -RA SCT020 BKN033 OVC095 21/05 A3040 RMK AO2 P0001
KJTC 081830Z AUTO 27020G34KT 10SM FEW095 FEW110 23/03 A3040 RMK AO2
KJTC 081815Z AUTO 25023G31KT 10SM FEW047 FEW075 FEW090 24/04 A3040 RMK AO2
KJTC 081755Z AUTO 00000KT 10SM FEW047 FEW075 FEW090 26/03 A3039 RMK AO2
KJTC 081735Z AUTO 05006KT 10SM CLR 26/03 A3039 RMK AO2
KJTC 081715Z AUTO 09006KT 10SM CLR 26/04 A3040 RMK AO2
KJTC 081655Z AUTO 08008KT 10SM CLR 25/05 A3040 RMK AO2
KJTC 081635Z AUTO 10005KT 10SM CLR 25/05 A3040 RMK AO2
KJTC 081615Z AUTO VRB05KT 10SM CLR 24/05 A3040 RMK AO2
KJTC 081555Z AUTO 08006KT 10SM CLR 24/06 A3040 RMK AO2
KJTC 081535Z AUTO 00000KT 10SM CLR 23/07 A3040 RMK AO2
KJTC 081515Z AUTO 11004KT 10SM CLR 21/07 A3040 RMK AO2
KJTC 081455Z AUTO 12004KT 10SM CLR 19/09 A3040 RMK AO2
KJTC 081435Z AUTO 13003KT 10SM CLR 19/09 A3040 RMK AO2
KJTC 081415Z AUTO 18003KT 10SM CLR 18/08 A3040 RMK AO2
KJTC 081355Z AUTO 20004KT 10SM CLR 16/07 A3040 RMK AO2
KJTC 081335Z AUTO 21005KT 10SM CLR 14/07 A3039 RMK AO2
KJTC 081315Z AUTO 21006KT 10SM CLR 13/06 A3039 RMK AO2
KJTC 081255Z AUTO 23004KT 10SM CLR 11/06 A3038 RMK AO2
KJTC 081235Z AUTO 00000KT 10SM CLR 11/07 A3038 RMK AO2
KJTC 081210Z AUTO 23003KT 10SM CLR 13/06 A3037 RMK AO2
KJTC 081155Z AUTO 19005KT 10SM CLR 13/06 A3037 RMK AO2
KJTC 081135Z AUTO 21008KT 10SM SCT110 12/07 A3036 RMK AO2
KJTC 081115Z AUTO 20005KT 10SM BKN110 12/07 A3036 RMK AO2
KJTC 081055Z AUTO 00000KT 10SM CLR 13/06 A3035 RMK AO2
KJTC 081035Z AUTO 00000KT 10SM SCT110 14/07 A3035 RMK AO2
KJTC 081015Z AUTO 00000KT 10SM SCT110 14/07 A3035 RMK AO2
KJTC 080955Z AUTO 00000KT 10SM FEW110 14/06 A3034 RMK AO2
KJTC 080930Z AUTO 00000KT 10SM FEW120 15/07 A3034 RMK AO2
KJTC 080915Z AUTO 09003KT 10SM BKN120 17/06 A3034 RMK AO2
KJTC 080855Z AUTO 00000KT 10SM BKN120 16/06 A3035 RMK AO2
KJTC 080835Z AUTO 00000KT 10SM BKN120 14/08 A3035 RMK AO2
KJTC 080815Z AUTO 00000KT 10SM CLR 15/07 A3035 RMK AO2
KJTC 080755Z AUTO 01004KT 10SM CLR 15/08 A3035 RMK AO2
KJTC 080735Z AUTO 00000KT 10SM FEW120 17/08 A3036 RMK AO2
KJTC 080715Z AUTO 00000KT 10SM SCT120 17/07 A3036 RMK AO2
KJTC 080655Z AUTO 00000KT 10SM SCT120 17/08 A3036 RMK AO2
KJTC 080630Z AUTO 00000KT 10SM FEW120 16/08 A3036 RMK AO2
KJTC 080615Z AUTO 18003KT 10SM FEW120 18/07 A3036 RMK AO2
KJTC 080555Z AUTO 00000KT 10SM BKN120 17/07 A3036 RMK AO2
KJTC 080530Z AUTO 00000KT 10SM CLR 16/08 A3036 RMK AO2
KJTC 080515Z AUTO 16003KT 10SM CLR 17/07 A3035 RMK AO2
KJTC 080455Z AUTO 12004KT 10SM CLR 19/07 A3035 RMK AO2
KJTC 080435Z AUTO 16004KT 10SM CLR 19/07 A3035 RMK AO2
KJTC 080415Z AUTO 18005KT 10SM CLR 19/07 A3035 RMK AO2
KJTC 080355Z AUTO 16004KT 10SM CLR 19/07 A3035 RMK AO2
KJTC 080335Z AUTO 16007KT 10SM CLR 17/08 A3034 RMK AO2
KJTC 080315Z AUTO 17007KT 10SM CLR 18/07 A3034 RMK AO2
KJTC 080255Z AUTO 17007KT 10SM CLR 19/08 A3033 RMK AO2
KJTC 080235Z AUTO 20006KT 10SM FEW120 19/10 A3032 RMK AO2
KJTC 080215Z AUTO 16006KT 10SM CLR 21/09 A3032 RMK AO2
KJTC 080155Z AUTO 12005KT 10SM FEW120 21/11 A3032 RMK AO2
KJTC 080130Z AUTO 14003KT 10SM SCT110 22/11 A3031 RMK AO2
KJTC 080110Z AUTO 14006KT 10SM SCT110 23/09 A3031 RMK AO2
KJTC 080055Z AUTO 16006KT 10SM BKN110 23/10 A3031 RMK AO2
KJTC 080035Z AUTO 13004KT 10SM BKN110 23/11 A3032 RMK AO2
KJTC 080015Z AUTO 00000KT 10SM BKN120 22/10 A3032 RMK AO2
KJTC 072355Z AUTO VRB04KT 10SM BKN080 22/12 A3033 RMK AO2
KJTC 072335Z AUTO 07005KT 10SM OVC080 21/12 A3033 RMK AO2
KJTC 072315Z AUTO 12006G12KT 10SM BKN085 BKN110 21/12 A3033 RMK AO2
KJTC 072255Z AUTO 12010KT 10SM FEW046 FEW060 BKN090 21/12 A3033 RMK AO2
KJTC 072235Z AUTO 13012G17KT 9SM FEW034 SCT047 BKN065 20/12 A3032 RMK AO2
KJTC 072215Z AUTO 14011KT 10SM FEW026 SCT048 BKN095 19/13 A3034 RMK AO2
KJTC 072155Z AUTO 12012KT 9SM FEW025 SCT040 BKN050 19/13 A3033 RMK AO2 P0001
KJTC 072135Z AUTO 12010KT 9SM -DZ FEW002 SCT040 BKN095 20/13 A3034 RMK AO2
KJTC 072115Z AUTO 11011KT 10SM FEW020 SCT039 BKN090 20/13 A3033 RMK AO2
KJTC 072055Z AUTO 12013KT 9SM FEW018 SCT034 BKN095 21/11 A3034 RMK AO2 LTG DSNT E AND SE
KJTC 072035Z AUTO 11015KT 10SM FEW050 FEW070 BKN095 24/10 A3033 RMK AO2
KJTC 072010Z AUTO 07009KT 10SM FEW045 FEW065 SCT095 26/07 A3033 RMK AO2 LTG DSNT NE AND SE
KJTC 071955Z AUTO 09008KT 10SM FEW038 FEW050 SCT095 25/08 A3033 RMK AO2 LTG DSNT N-SE
KJTC 071935Z AUTO 08008KT 10SM VCTS FEW040 FEW065 BKN090 23/09 A3033 RMK AO2 LTG DSNT NE
KJTC 071915Z AUTO 11012KT 10SM FEW006 SCT075 BKN085 23/10 A3034 RMK AO2 LTG DSNT NE
KJTC 071855Z AUTO 13009G20KT 5SM -RA FEW001 SCT018 BKN041 20/11 A3034 RMK AO2 LTG DSNT ALQDS P0004
KJTC 071835Z AUTO VRB04KT 10SM VCTS OVC085 25/04 A3033 RMK AO2 LTG DSNT S
KJTC 071815Z AUTO VRB06KT 10SM BKN085 OVC110 26/04 A3033 RMK AO2
KJTC 071755Z AUTO 00000KT 10SM FEW049 BKN100 26/04 A3034 RMK AO2
KJTC 071735Z AUTO 00000KT 10SM OVC090 25/05 A3035 RMK AO2
KJTC 071715Z AUTO 32005KT 10SM OVC095 25/05 A3035 RMK AO2
KJTC 071655Z AUTO 29007KT 10SM FEW070 BKN095 OVC120 26/05 A3035 RMK AO2
KJTC 071635Z AUTO 26007KT 240V300 10SM FEW048 FEW075 BKN095 25/04 A3034 RMK AO2
KJTC 071615Z AUTO 00000KT 10SM BKN100 24/03 A3034 RMK AO2
KJTC 071550Z AUTO 00000KT 10SM SCT095 24/05 A3033 RMK AO2
KJTC 071535Z AUTO 16004KT 10SM FEW095 FEW120 24/05 A3034 RMK AO2
KJTC 071515Z AUTO 16003KT 10SM BKN095 BKN120 21/07 A3034 RMK AO2
KJTC 071455Z AUTO 14004KT 10SM BKN100 20/06 A3034 RMK AO2
KJTC 071435Z AUTO 13003KT 10SM SCT100 SCT120 19/06 A3033 RMK AO2
KJTC 071415Z AUTO 00000KT 10SM FEW065 SCT100 18/05 A3033 RMK AO2
KJTC 071355Z AUTO VRB04G10KT 10SM FEW120 17/05 A3032 RMK AO2
KJTC 071330Z AUTO 22006KT 10SM FEW120 16/03 A3032 RMK AO2
KJTC 071315Z AUTO 22008KT 10SM FEW110 14/03 A3031 RMK AO2
KJTC 071255Z AUTO 20006KT 10SM SCT110 13/03 A3031 RMK AO2
KJTC 071235Z AUTO 21005KT 10SM FEW110 13/03 A3031 RMK AO2
KJTC 071215Z AUTO 23004KT 10SM CLR 11/03 A3030 RMK AO2
KJTC 071155Z AUTO 20006KT 10SM CLR 13/03 A3030 RMK AO2
KJTC 071135Z AUTO 20007KT 10SM CLR 13/03 A3029 RMK AO2
KJTC 071115Z AUTO 21005KT 10SM CLR 12/02 A3029 RMK AO2
KJTC 071055Z AUTO 24010KT 10SM CLR 13/02 A3028 RMK AO2
KJTC 071035Z AUTO 00000KT 10SM CLR 13/02 A3029 RMK AO2
KJTC 071015Z AUTO 22007KT 10SM CLR 13/02 A3028 RMK AO2
KJTC 070955Z AUTO 22006KT 10SM CLR 13/02 A3028 RMK AO2
KJTC 070935Z AUTO 22008KT 10SM CLR 13/02 A3028 RMK AO2